Time;durP1;ratioP1;P1;durP2;ratioP2;P2;SDS_P1;SDS_P2;PMS_P1;PMS_P2;Temp;Humidity;BMP_temperature;BMP_pressure;BME280_temperature;BME280_humidity;BME280_pressure;Samples;Min_cycle;Max_cycle;Signal;HPM_P1;HPM_P2
2023/12/31 00:02:03;;;;;;;5.13;2.80;;;9.70;99.90;;;;;;5082695;28;20192;-61
2023/12/31 00:04:33;;;;;;;7.53;3.20;;;9.70;99.90;;;;;;5086535;28;20237;-61
2023/12/31 00:07:01;;;;;;;3.97;2.73;;;9.60;99.90;;;;;;5079942;28;20265;-61
2023/12/31 00:09:29;;;;;;;8.33;2.83;;;9.60;99.90;;;;;;5088865;28;20689;-61
2023/12/31 00:11:57;;;;;;;3.87;3.17;;;9.50;99.90;;;;;;5084712;28;20269;-61
2023/12/31 00:14:26;;;;;;;6.97;3.20;;;9.50;99.90;;;;;;5084425;28;20227;-61
2023/12/31 00:16:54;;;;;;;6.03;3.23;;;9.50;99.90;;;;;;5084102;28;20219;-61
2023/12/31 00:19:22;;;;;;;10.30;3.70;;;9.50;99.90;;;;;;5079048;28;20242;-61
2023/12/31 00:21:52;;;;;;;8.17;4.13;;;9.40;99.90;;;;;;5082947;28;20585;-61
2023/12/31 00:24:20;;;;;;;6.60;4.00;;;9.40;99.90;;;;;;5083810;28;20227;-61
2023/12/31 00:26:48;;;;;;;4.67;3.27;;;9.30;99.90;;;;;;5077463;28;20220;-62
2023/12/31 00:29:16;;;;;;;5.67;3.20;;;9.30;99.90;;;;;;5081403;28;20196;-62
2023/12/31 00:31:44;;;;;;;5.63;3.13;;;9.30;99.90;;;;;;5082275;28;20187;-61
2023/12/31 00:34:13;;;;;;;6.30;2.83;;;9.30;99.90;;;;;;5085540;28;20215;-61
2023/12/31 00:36:41;;;;;;;5.37;3.00;;;9.30;99.90;;;;;;5083893;28;20294;-61
2023/12/31 00:39:11;;;;;;;5.17;3.20;;;9.30;99.90;;;;;;5086741;28;20216;-61
2023/12/31 00:41:39;;;;;;;3.57;3.07;;;9.20;99.90;;;;;;5084688;28;20249;-61
2023/12/31 00:44:07;;;;;;;3.40;2.77;;;9.20;99.90;;;;;;5084584;28;20203;-61
2023/12/31 00:46:35;;;;;;;5.07;3.00;;;9.20;99.90;;;;;;5085256;28;20213;-61
2023/12/31 00:49:03;;;;;;;5.23;3.03;;;9.20;99.90;;;;;;5083873;28;20724;-61
2023/12/31 00:51:32;;;;;;;6.20;3.00;;;9.20;99.90;;;;;;5085170;28;20559;-61
2023/12/31 00:54:00;;;;;;;5.00;3.10;;;9.20;99.90;;;;;;5082055;28;20230;-61
2023/12/31 00:56:29;;;;;;;3.90;2.70;;;9.20;99.90;;;;;;5078374;28;20235;-61
2023/12/31 00:58:58;;;;;;;4.27;2.60;;;9.30;99.90;;;;;;5084320;28;20211;-61
2023/12/31 01:01:26;;;;;;;3.57;3.27;;;9.30;99.90;;;;;;5083421;28;20223;-61
2023/12/31 01:03:54;;;;;;;4.10;2.90;;;9.40;99.90;;;;;;5083814;28;20227;-61
2023/12/31 01:06:23;;;;;;;8.27;3.50;;;9.40;99.90;;;;;;5084572;28;20656;-61
2023/12/31 01:08:51;;;;;;;5.40;3.80;;;9.40;99.90;;;;;;5083237;28;20227;-61
2023/12/31 01:11:20;;;;;;;7.60;3.90;;;9.40;99.90;;;;;;5084001;28;20295;-61
2023/12/31 01:13:50;;;;;;;9.17;4.07;;;9.40;99.90;;;;;;5083286;28;20204;-61
2023/12/31 01:16:19;;;;;;;8.87;4.97;;;9.30;99.90;;;;;;5080726;28;20250;-61
2023/12/31 01:18:47;;;;;;;10.80;4.77;;;9.30;99.90;;;;;;5086602;28;20219;-61
2023/12/31 01:21:15;;;;;;;9.13;5.10;;;9.30;99.90;;;;;;5082745;28;20216;-61
2023/12/31 01:23:44;;;;;;;13.57;5.70;;;9.30;99.90;;;;;;5081140;28;20242;-61
2023/12/31 01:26:14;;;;;;;13.80;5.90;;;9.30;99.90;;;;;;5083777;28;20188;-61
2023/12/31 01:28:43;;;;;;;10.43;4.97;;;9.30;99.90;;;;;;5083887;28;20180;-61
2023/12/31 01:31:19;;;;;;;9.17;4.30;;;9.30;99.90;;;;;;5085126;28;20219;-61
2023/12/31 01:33:48;;;;;;;7.00;4.40;;;9.30;99.90;;;;;;5083749;28;20215;-61
2023/12/31 01:36:17;;;;;;;7.67;4.00;;;9.40;99.90;;;;;;5080228;28;20900;-61
2023/12/31 01:38:45;;;;;;;5.97;3.80;;;9.40;99.90;;;;;;5085991;28;20277;-61
2023/12/31 01:41:13;;;;;;;5.47;3.47;;;9.30;99.90;;;;;;5085037;27;20199;-60
2023/12/31 01:43:42;;;;;;;6.23;3.67;;;9.40;99.90;;;;;;5082386;28;20187;-61
2023/12/31 01:46:11;;;;;;;6.00;3.30;;;9.40;99.90;;;;;;5082985;28;20218;-62
2023/12/31 01:48:41;;;;;;;4.37;3.30;;;9.40;99.90;;;;;;5081324;28;20227;-61
2023/12/31 01:51:09;;;;;;;4.60;3.50;;;9.40;99.90;;;;;;5081481;28;20256;-61
2023/12/31 01:53:38;;;;;;;6.30;3.40;;;9.50;99.90;;;;;;5078847;28;20597;-61
2023/12/31 01:56:06;;;;;;;6.57;3.50;;;9.50;99.90;;;;;;5080769;28;20542;-61
2023/12/31 01:58:35;;;;;;;4.47;3.43;;;9.50;99.90;;;;;;5082714;28;20219;-61
2023/12/31 02:01:04;;;;;;;5.37;3.70;;;9.50;99.90;;;;;;5077758;28;20248;-61
2023/12/31 02:03:34;;;;;;;4.40;3.73;;;9.50;99.90;;;;;;5080609;28;20270;-61
2023/12/31 02:06:04;;;;;;;7.67;3.80;;;9.60;99.90;;;;;;5081324;28;20222;-61
2023/12/31 02:08:32;;;;;;;7.97;4.00;;;9.70;99.90;;;;;;5079901;28;20230;-61
2023/12/31 02:11:01;;;;;;;9.33;4.10;;;9.70;99.90;;;;;;5081629;27;20676;-60
2023/12/31 02:13:29;;;;;;;4.60;4.13;;;9.70;99.90;;;;;;5082543;28;20207;-61
2023/12/31 02:15:57;;;;;;;5.50;3.87;;;9.70;99.90;;;;;;5080672;28;20297;-61
2023/12/31 02:18:26;;;;;;;6.47;4.30;;;9.70;99.90;;;;;;5083912;28;20223;-62
2023/12/31 02:20:54;;;;;;;7.43;3.73;;;9.70;99.90;;;;;;5082592;28;20261;-61
2023/12/31 02:23:25;;;;;;;6.70;3.60;;;9.70;99.90;;;;;;5084974;28;20403;-61
2023/12/31 02:26:05;;;;;;;7.47;3.77;;;9.80;99.90;;;;;;5083288;28;20179;-61
2023/12/31 02:28:33;;;;;;;3.27;3.00;;;9.70;99.90;;;;;;5080538;28;20208;-61
2023/12/31 02:31:01;;;;;;;3.33;2.93;;;9.80;99.90;;;;;;5079143;28;20275;-61
2023/12/31 02:33:30;;;;;;;3.87;3.03;;;9.80;99.90;;;;;;5081685;28;20216;-61
2023/12/31 02:35:58;;;;;;;3.20;2.90;;;9.90;99.90;;;;;;5082203;28;20218;-61
2023/12/31 02:38:26;;;;;;;2.93;2.73;;;9.90;99.90;;;;;;5078829;28;20242;-61
2023/12/31 02:40:54;;;;;;;2.63;2.40;;;9.90;99.90;;;;;;5078934;28;20199;-61
2023/12/31 02:43:24;;;;;;;2.80;2.60;;;9.90;99.90;;;;;;5082515;28;20589;-61
2023/12/31 02:45:52;;;;;;;2.87;2.40;;;9.90;99.90;;;;;;5081929;28;20220;-61
2023/12/31 02:48:20;;;;;;;2.30;2.20;;;9.90;99.90;;;;;;5083055;28;20565;-61
2023/12/31 02:50:49;;;;;;;2.43;2.23;;;9.90;99.90;;;;;;5082976;28;20226;-61
2023/12/31 02:53:17;;;;;;;2.80;2.60;;;9.90;99.90;;;;;;5079724;28;20207;-61
2023/12/31 02:55:46;;;;;;;2.10;2.00;;;9.90;99.90;;;;;;5082433;28;20278;-61
2023/12/31 02:58:14;;;;;;;2.20;2.10;;;10.00;99.90;;;;;;5085614;28;20335;-61
2023/12/31 03:00:44;;;;;;;2.87;2.40;;;10.00;99.90;;;;;;5082932;28;20344;-61
2023/12/31 03:03:12;;;;;;;2.53;2.40;;;10.00;99.90;;;;;;5084912;28;20232;-62
2023/12/31 03:05:40;;;;;;;2.33;2.30;;;10.00;99.90;;;;;;5083306;28;20223;-61
2023/12/31 03:08:09;;;;;;;2.63;2.43;;;10.00;99.90;;;;;;5087402;28;20191;-61
2023/12/31 03:10:37;;;;;;;2.60;2.50;;;10.00;99.90;;;;;;5084546;28;20230;-61
2023/12/31 03:13:06;;;;;;;3.37;2.20;;;10.00;99.90;;;;;;5087611;28;20237;-61
2023/12/31 03:15:34;;;;;;;2.50;2.40;;;10.00;99.90;;;;;;5087306;28;20601;-61
2023/12/31 03:18:04;;;;;;;2.90;2.70;;;10.00;99.90;;;;;;5089024;28;20226;-61
2023/12/31 03:20:32;;;;;;;2.77;2.60;;;10.00;99.90;;;;;;5084367;28;20227;-61
2023/12/31 03:23:00;;;;;;;2.50;2.33;;;10.00;99.90;;;;;;5084625;28;20649;-60
2023/12/31 03:25:29;;;;;;;2.63;2.40;;;9.90;99.90;;;;;;5086915;28;20543;-61
2023/12/31 03:27:57;;;;;;;2.83;2.63;;;10.00;99.90;;;;;;5088274;28;20261;-60
2023/12/31 03:30:25;;;;;;;2.60;2.40;;;10.00;99.90;;;;;;5086745;28;20239;-61
2023/12/31 03:32:54;;;;;;;2.90;2.47;;;10.00;99.90;;;;;;5083065;27;20220;-61
2023/12/31 03:35:23;;;;;;;2.50;2.40;;;10.00;99.90;;;;;;5084272;28;20241;-61
2023/12/31 03:37:51;;;;;;;3.23;2.40;;;10.00;99.90;;;;;;5081984;28;20545;-61
2023/12/31 03:40:21;;;;;;;2.70;2.20;;;9.90;99.90;;;;;;5084516;28;20581;-61
2023/12/31 03:42:49;;;;;;;2.77;2.43;;;9.90;99.90;;;;;;5082630;28;20223;-60
2023/12/31 03:45:17;;;;;;;2.90;2.70;;;9.90;99.90;;;;;;5084508;28;20950;-61
2023/12/31 03:47:46;;;;;;;2.30;2.20;;;9.90;99.90;;;;;;5084171;28;20219;-61
2023/12/31 03:50:16;;;;;;;3.07;2.60;;;9.90;99.90;;;;;;5083686;28;20192;-61
2023/12/31 03:52:46;;;;;;;3.33;2.60;;;9.90;99.90;;;;;;5083308;28;20189;-61
2023/12/31 03:55:14;;;;;;;2.70;2.50;;;9.90;99.90;;;;;;5088005;28;20215;-61
2023/12/31 03:57:43;;;;;;;3.10;2.70;;;9.90;99.90;;;;;;5086800;28;20223;-61
2023/12/31 04:00:12;;;;;;;2.70;2.43;;;9.90;99.90;;;;;;5084926;28;20226;-61
2023/12/31 04:02:41;;;;;;;2.57;2.37;;;10.00;99.90;;;;;;5085272;28;20227;-60
2023/12/31 04:05:10;;;;;;;2.90;2.70;;;10.00;99.90;;;;;;5085844;28;20191;-60
2023/12/31 04:07:39;;;;;;;3.07;2.90;;;10.10;99.90;;;;;;5082107;28;20196;-60
2023/12/31 04:10:11;;;;;;;3.20;3.00;;;10.10;99.90;;;;;;5081462;28;20215;-62
2023/12/31 04:12:39;;;;;;;2.70;2.60;;;10.10;99.90;;;;;;5082697;28;20478;-61
2023/12/31 04:15:08;;;;;;;3.50;3.30;;;10.10;99.90;;;;;;5084553;28;20223;-61
2023/12/31 04:17:36;;;;;;;3.40;3.10;;;10.00;99.90;;;;;;5085641;28;20229;-61
2023/12/31 04:20:06;;;;;;;3.20;2.73;;;10.00;99.90;;;;;;5083261;28;20311;-61
2023/12/31 04:22:35;;;;;;;3.47;3.27;;;10.00;99.90;;;;;;5085509;28;20203;-61
2023/12/31 04:25:04;;;;;;;3.53;3.20;;;10.00;99.90;;;;;;5082953;28;20562;-61
2023/12/31 04:27:38;;;;;;;4.73;3.60;;;10.00;99.90;;;;;;5086867;28;20231;-61
2023/12/31 04:30:07;;;;;;;3.77;3.47;;;9.90;99.90;;;;;;5084025;28;20223;-61
2023/12/31 04:32:35;;;;;;;3.37;3.17;;;9.90;99.90;;;;;;5083988;28;20216;-61
2023/12/31 04:35:05;;;;;;;3.80;3.50;;;10.00;99.90;;;;;;5085768;28;20196;-60
2023/12/31 04:37:33;;;;;;;4.80;3.43;;;10.00;99.90;;;;;;5080949;28;20202;-61
2023/12/31 04:40:01;;;;;;;5.17;3.30;;;9.90;99.90;;;;;;5086437;28;20752;-61
2023/12/31 04:42:30;;;;;;;5.60;4.00;;;9.80;99.90;;;;;;5084601;28;20219;-62
2023/12/31 04:45:04;;;;;;;3.70;3.50;;;9.80;99.90;;;;;;5083122;28;20220;-61
2023/12/31 04:47:33;;;;;;;5.07;3.83;;;9.80;99.90;;;;;;5078043;28;20257;-61
2023/12/31 04:50:01;;;;;;;5.60;3.80;;;9.80;99.90;;;;;;5083585;27;20180;-60
2023/12/31 04:52:30;;;;;;;3.80;3.50;;;9.90;99.90;;;;;;5081146;28;20741;-61
2023/12/31 04:54:58;;;;;;;4.10;3.70;;;9.90;99.90;;;;;;5084119;27;20245;-61
2023/12/31 04:57:26;;;;;;;3.70;3.40;;;9.90;99.90;;;;;;5081803;28;20227;-61
2023/12/31 04:59:54;;;;;;;4.07;3.77;;;9.90;99.90;;;;;;5085153;28;20232;-61
2023/12/31 05:02:25;;;;;;;4.00;3.70;;;9.90;99.90;;;;;;5083584;28;20233;-61
2023/12/31 05:04:53;;;;;;;3.77;3.47;;;10.00;99.90;;;;;;5082206;28;20226;-61
2023/12/31 05:07:22;;;;;;;3.53;3.30;;;9.90;99.90;;;;;;5083348;28;20219;-61
2023/12/31 05:09:50;;;;;;;5.27;3.30;;;9.90;99.90;;;;;;5084393;28;20276;-61
2023/12/31 05:12:19;;;;;;;3.50;3.30;;;10.00;99.90;;;;;;5081567;28;20216;-61
2023/12/31 05:14:47;;;;;;;3.00;2.80;;;10.00;99.90;;;;;;5084073;28;20230;-61
2023/12/31 05:17:15;;;;;;;3.40;3.10;;;10.10;99.90;;;;;;5086356;28;20191;-61
2023/12/31 05:19:47;;;;;;;3.63;2.77;;;10.10;99.90;;;;;;5087687;28;20219;-61
2023/12/31 05:22:15;;;;;;;3.10;3.00;;;10.20;99.90;;;;;;5082655;28;20226;-61
2023/12/31 05:24:43;;;;;;;2.70;2.60;;;10.20;99.90;;;;;;5082358;28;20354;-60
2023/12/31 05:27:11;;;;;;;2.83;2.63;;;10.20;99.90;;;;;;5082393;28;20226;-60
2023/12/31 05:29:40;;;;;;;2.60;2.50;;;10.20;99.90;;;;;;5080149;28;20219;-61
2023/12/31 05:32:08;;;;;;;3.47;3.27;;;10.20;99.90;;;;;;5083396;28;20196;-61
2023/12/31 05:34:36;;;;;;;3.67;2.70;;;10.20;99.90;;;;;;5082872;28;20212;-61
2023/12/31 05:37:06;;;;;;;2.90;2.70;;;10.30;99.90;;;;;;5086083;28;20215;-61
2023/12/31 05:39:34;;;;;;;2.57;2.47;;;10.30;99.90;;;;;;5082883;28;20231;-62
2023/12/31 05:42:03;;;;;;;2.80;2.67;;;10.20;99.90;;;;;;5084244;28;20207;-60
2023/12/31 05:44:31;;;;;;;2.60;2.43;;;10.30;99.90;;;;;;5083896;28;20222;-61
2023/12/31 05:46:59;;;;;;;2.27;2.17;;;10.30;99.90;;;;;;5082611;28;20196;-61
2023/12/31 05:49:27;;;;;;;2.60;2.50;;;10.30;99.90;;;;;;4961136;28;20239;-60
2023/12/31 05:51:56;;;;;;;2.50;2.40;;;10.30;99.90;;;;;;4979957;28;20617;-60
2023/12/31 05:54:25;;;;;;;2.50;2.40;;;10.40;99.90;;;;;;5040154;28;20227;-60
2023/12/31 05:56:54;;;;;;;2.67;2.57;;;10.40;99.90;;;;;;5081107;28;20227;-60
2023/12/31 05:59:24;;;;;;;2.80;2.70;;;10.40;99.90;;;;;;5085727;28;20219;-61
2023/12/31 06:01:53;;;;;;;2.80;2.60;;;10.30;99.90;;;;;;5083968;28;20299;-61
2023/12/31 06:04:21;;;;;;;2.83;2.73;;;10.10;99.90;;;;;;5085176;28;20788;-60
2023/12/31 06:06:49;;;;;;;3.20;2.87;;;10.00;99.90;;;;;;5085840;28;20250;-60
2023/12/31 06:09:17;;;;;;;2.87;2.63;;;9.90;99.90;;;;;;5078699;28;20307;-61
2023/12/31 06:11:47;;;;;;;3.10;2.90;;;9.80;99.90;;;;;;5084231;28;20230;-61
2023/12/31 06:14:15;;;;;;;2.97;2.87;;;9.80;99.90;;;;;;5081491;28;20562;-60
2023/12/31 06:16:43;;;;;;;2.70;2.60;;;9.90;99.90;;;;;;5084507;28;20669;-60
2023/12/31 06:19:11;;;;;;;2.93;2.73;;;9.90;99.90;;;;;;5084124;28;20219;-59
2023/12/31 06:21:40;;;;;;;2.57;2.47;;;9.90;99.90;;;;;;5079679;28;20261;-61
2023/12/31 06:24:08;;;;;;;2.80;2.70;;;9.90;99.90;;;;;;5079261;28;20216;-60
2023/12/31 06:26:37;;;;;;;2.93;2.80;;;9.80;99.90;;;;;;5083139;28;20239;-61
2023/12/31 06:29:07;;;;;;;2.90;2.70;;;9.80;99.90;;;;;;5078536;28;20190;-58
2023/12/31 06:31:36;;;;;;;2.67;2.57;;;9.70;99.90;;;;;;5081794;28;20186;-60
2023/12/31 06:34:04;;;;;;;3.57;2.40;;;9.70;99.90;;;;;;5084240;28;20223;-61
2023/12/31 06:36:32;;;;;;;2.63;2.47;;;9.80;99.90;;;;;;5086755;28;20218;-61
2023/12/31 06:39:01;;;;;;;4.13;2.83;;;9.80;99.90;;;;;;5082865;28;20219;-62
2023/12/31 06:41:29;;;;;;;2.90;2.73;;;9.80;99.90;;;;;;5080501;28;20231;-61
2023/12/31 06:43:57;;;;;;;2.97;2.33;;;9.90;99.90;;;;;;5078875;28;20546;-61
2023/12/31 06:46:27;;;;;;;4.03;2.50;;;9.90;99.90;;;;;;5081223;28;20257;-61
2023/12/31 06:48:57;;;;;;;2.60;2.50;;;10.00;99.90;;;;;;5082547;28;20551;-60
2023/12/31 06:51:25;;;;;;;2.60;2.40;;;10.00;99.90;;;;;;5081193;28;20227;-61
2023/12/31 06:53:54;;;;;;;2.63;2.53;;;10.00;99.90;;;;;;5082408;28;20319;-60
2023/12/31 06:56:22;;;;;;;3.03;2.83;;;10.00;99.90;;;;;;5084696;28;20231;-61
2023/12/31 06:58:50;;;;;;;2.57;2.37;;;10.10;99.90;;;;;;5083210;28;20191;-60
2023/12/31 07:01:18;;;;;;;5.27;2.53;;;10.10;99.90;;;;;;5083822;28;20262;-60
2023/12/31 07:03:48;;;;;;;2.70;2.50;;;10.10;99.90;;;;;;5079918;28;20231;-61
2023/12/31 07:06:16;;;;;;;2.77;2.57;;;10.00;99.90;;;;;;5077157;28;20223;-61
2023/12/31 07:08:44;;;;;;;2.97;2.77;;;10.00;99.90;;;;;;5082329;28;20215;-61
2023/12/31 07:11:14;;;;;;;3.30;2.70;;;10.00;99.90;;;;;;5082462;27;20188;-61
2023/12/31 07:13:42;;;;;;;2.80;2.70;;;9.90;99.90;;;;;;5082988;28;20199;-61
2023/12/31 07:16:11;;;;;;;4.70;2.43;;;9.80;99.90;;;;;;5084355;28;20227;-61
2023/12/31 07:18:39;;;;;;;2.80;2.70;;;9.80;99.90;;;;;;5082559;27;20225;-62
2023/12/31 07:21:09;;;;;;;2.30;2.20;;;9.70;99.90;;;;;;5079522;28;20261;-61
2023/12/31 07:23:37;;;;;;;2.87;2.63;;;9.70;99.90;;;;;;5082112;28;20224;-60
2023/12/31 07:26:05;;;;;;;2.97;2.67;;;9.70;99.90;;;;;;5084722;28;20199;-60
2023/12/31 07:28:34;;;;;;;4.53;2.77;;;9.60;99.90;;;;;;5084829;28;20196;-61
2023/12/31 07:31:03;;;;;;;3.20;3.00;;;9.40;99.90;;;;;;5081830;27;20214;-61
2023/12/31 07:33:31;;;;;;;3.57;2.67;;;9.30;99.90;;;;;;5078682;28;20755;-62
2023/12/31 07:35:59;;;;;;;4.63;2.40;;;9.20;99.90;;;;;;5081878;28;20235;-62
2023/12/31 07:38:29;;;;;;;2.93;2.10;;;9.10;99.90;;;;;;5077976;28;20741;-62
2023/12/31 07:40:57;;;;;;;2.17;2.10;;;9.00;99.90;;;;;;5084421;28;20215;-62
2023/12/31 07:43:25;;;;;;;2.40;2.17;;;8.90;99.90;;;;;;5083774;28;20216;-62
2023/12/31 07:45:54;;;;;;;2.43;2.20;;;8.80;99.90;;;;;;5085554;28;20678;-62
2023/12/31 07:48:22;;;;;;;2.23;2.03;;;8.80;99.90;;;;;;5085463;28;20444;-62
2023/12/31 07:50:51;;;;;;;2.10;2.00;;;8.70;99.90;;;;;;5083783;28;20218;-62
2023/12/31 07:53:19;;;;;;;1.90;1.80;;;8.60;99.90;;;;;;5083174;28;20180;-62
2023/12/31 07:55:48;;;;;;;2.47;2.00;;;8.60;99.90;;;;;;5085601;28;20202;-62
2023/12/31 07:58:17;;;;;;;2.43;1.60;;;8.50;99.90;;;;;;5082278;28;20306;-62
2023/12/31 08:00:45;;;;;;;1.80;1.70;;;8.50;99.90;;;;;;5083414;28;20243;-62
2023/12/31 08:03:13;;;;;;;1.53;1.53;;;8.40;99.90;;;;;;5085818;28;20234;-62
2023/12/31 08:05:41;;;;;;;1.60;1.60;;;8.40;99.90;;;;;;5084160;28;20252;-62
2023/12/31 08:08:12;;;;;;;1.80;1.70;;;8.40;99.90;;;;;;5084462;28;20187;-61
2023/12/31 08:10:41;;;;;;;1.97;1.87;;;8.40;99.90;;;;;;5082683;28;20183;-62
2023/12/31 08:13:11;;;;;;;2.53;1.90;;;8.40;99.90;;;;;;5086129;28;20251;-62
2023/12/31 08:15:39;;;;;;;2.07;1.80;;;8.40;99.90;;;;;;5080266;28;20273;-62
2023/12/31 08:18:07;;;;;;;1.60;1.60;;;8.50;99.90;;;;;;5081642;28;20216;-62
2023/12/31 08:20:36;;;;;;;3.90;1.90;;;8.50;99.90;;;;;;5086120;28;20692;-62
2023/12/31 08:23:04;;;;;;;2.40;1.90;;;8.60;99.90;;;;;;5082470;28;20242;-61
2023/12/31 08:25:33;;;;;;;1.80;1.80;;;8.60;99.90;;;;;;5086511;28;20286;-61
2023/12/31 08:28:01;;;;;;;1.93;1.73;;;8.70;99.90;;;;;;5082896;28;20276;-62
2023/12/31 08:30:31;;;;;;;2.10;2.00;;;8.70;99.90;;;;;;5083963;27;20219;-61
2023/12/31 08:33:00;;;;;;;2.90;1.80;;;8.70;99.90;;;;;;5085898;27;20292;-61
2023/12/31 08:35:29;;;;;;;1.60;1.50;;;8.70;99.90;;;;;;5085796;28;20226;-61
2023/12/31 08:37:57;;;;;;;1.80;1.70;;;8.60;99.90;;;;;;5084268;28;20215;-62
2023/12/31 08:40:26;;;;;;;3.60;1.70;;;8.70;99.90;;;;;;5084260;28;20631;-62
2023/12/31 08:42:54;;;;;;;1.87;1.70;;;8.70;99.90;;;;;;5082788;28;20243;-61
2023/12/31 08:45:22;;;;;;;2.00;1.47;;;8.80;99.90;;;;;;5084250;28;20223;-61
2023/12/31 08:47:52;;;;;;;1.60;1.30;;;8.80;99.90;;;;;;5082988;28;20223;-61
2023/12/31 08:50:21;;;;;;;1.73;1.40;;;8.80;99.90;;;;;;5085182;27;20241;-61
2023/12/31 08:52:49;;;;;;;3.13;1.70;;;8.80;99.90;;;;;;5082818;28;20564;-61
2023/12/31 08:55:18;;;;;;;2.27;1.73;;;8.80;99.90;;;;;;5081441;28;20254;-61
2023/12/31 08:57:47;;;;;;;1.70;1.60;;;8.80;99.90;;;;;;5081828;28;20223;-60
2023/12/31 09:00:18;;;;;;;1.30;1.30;;;8.90;99.90;;;;;;5082594;28;20211;-61
2023/12/31 09:02:46;;;;;;;1.73;1.50;;;8.90;99.90;;;;;;5082533;28;20632;-62
2023/12/31 09:05:16;;;;;;;3.73;1.37;;;8.90;99.90;;;;;;5082617;28;20202;-60
2023/12/31 09:07:45;;;;;;;2.17;1.10;;;8.90;99.90;;;;;;5086764;28;20242;-62
2023/12/31 09:10:13;;;;;;;2.00;1.30;;;9.00;99.90;;;;;;5079850;28;20231;-62
2023/12/31 09:12:42;;;;;;;1.40;1.30;;;9.00;99.90;;;;;;5081800;28;20238;-62
2023/12/31 09:15:12;;;;;;;2.67;1.43;;;9.10;99.90;;;;;;5084221;28;20696;-62
2023/12/31 09:17:40;;;;;;;4.90;1.40;;;9.10;99.90;;;;;;5084095;28;20219;-60
2023/12/31 09:20:09;;;;;;;1.57;1.30;;;9.10;99.90;;;;;;5086006;28;20191;-60
2023/12/31 09:22:39;;;;;;;2.63;1.27;;;9.10;99.90;;;;;;5081527;28;20752;-60
2023/12/31 09:25:08;;;;;;;1.37;1.27;;;9.20;99.90;;;;;;5080056;28;20247;-62
2023/12/31 09:27:36;;;;;;;2.20;1.33;;;9.30;99.90;;;;;;5077505;28;20261;-62
2023/12/31 09:30:05;;;;;;;2.27;1.30;;;9.30;99.90;;;;;;5083525;28;20861;-61
2023/12/31 09:32:34;;;;;;;1.50;1.20;;;9.40;99.90;;;;;;5084434;27;20220;-60
2023/12/31 09:35:02;;;;;;;3.13;1.30;;;9.40;99.90;;;;;;5081506;28;20215;-61
2023/12/31 09:37:31;;;;;;;1.27;1.10;;;9.50;99.90;;;;;;5084096;28;20187;-62
2023/12/31 09:40:02;;;;;;;3.77;1.40;;;9.60;99.90;;;;;;5084335;28;20276;-59
2023/12/31 09:42:35;;;;;;;1.23;1.20;;;9.70;99.90;;;;;;5085912;28;20212;-61
2023/12/31 09:45:06;;;;;;;4.37;1.50;;;9.70;99.90;;;;;;5082481;27;20764;-60
2023/12/31 09:47:36;;;;;;;1.40;1.30;;;9.70;99.90;;;;;;5086387;28;20256;-60
2023/12/31 09:50:07;;;;;;;1.20;1.20;;;9.70;99.90;;;;;;5084870;28;20594;-60
2023/12/31 09:52:37;;;;;;;2.27;1.37;;;9.70;99.90;;;;;;5087454;28;20206;-60
2023/12/31 09:55:09;;;;;;;1.57;1.37;;;9.70;99.90;;;;;;5086142;28;20238;-60
2023/12/31 09:57:37;;;;;;;4.77;1.57;;;9.70;99.90;;;;;;5077575;28;20215;-60
2023/12/31 10:00:07;;;;;;;2.90;1.40;;;9.60;99.90;;;;;;5081588;28;20689;-61
2023/12/31 10:02:35;;;;;;;3.03;1.50;;;9.60;99.90;;;;;;5083496;28;20234;-58
2023/12/31 10:05:06;;;;;;;1.00;1.00;;;9.70;99.90;;;;;;5080910;28;20191;-61
2023/12/31 10:07:35;;;;;;;2.53;1.40;;;9.70;99.90;;;;;;5081488;28;20312;-61
2023/12/31 10:10:04;;;;;;;1.20;1.20;;;9.70;99.90;;;;;;5082807;28;20226;-61
2023/12/31 10:12:34;;;;;;;1.10;1.10;;;9.60;99.90;;;;;;5082396;28;20238;-61
2023/12/31 10:15:02;;;;;;;1.10;1.10;;;9.50;99.90;;;;;;5080806;28;20577;-61
2023/12/31 10:17:32;;;;;;;2.03;1.47;;;9.40;99.90;;;;;;5083513;28;20229;-61
2023/12/31 10:20:03;;;;;;;2.80;1.33;;;9.30;99.90;;;;;;5083609;28;20204;-61
2023/12/31 10:22:32;;;;;;;3.43;1.40;;;9.30;99.90;;;;;;5086236;28;20211;-61
2023/12/31 10:25:13;;;;;;;6.77;2.17;;;9.20;99.90;;;;;;5082168;28;20215;-61
2023/12/31 10:27:47;;;;;;;1.63;1.53;;;9.20;99.90;;;;;;5083606;28;20272;-61
2023/12/31 10:30:15;;;;;;;1.47;1.37;;;9.20;99.90;;;;;;5080788;28;20216;-61
2023/12/31 10:32:44;;;;;;;2.93;1.60;;;9.10;99.90;;;;;;5081269;28;20767;-61
2023/12/31 10:35:12;;;;;;;5.33;1.20;;;9.10;99.90;;;;;;5082944;27;20222;-62
2023/12/31 10:37:41;;;;;;;2.53;1.40;;;8.90;99.90;;;;;;5083175;28;20188;-62
2023/12/31 10:40:19;;;;;;;2.20;1.60;;;8.80;99.90;;;;;;5080111;28;20228;-62
2023/12/31 10:42:55;;;;;;;3.50;1.50;;;8.70;99.90;;;;;;5082410;28;20223;-61
2023/12/31 10:45:24;;;;;;;1.87;1.70;;;8.60;99.90;;;;;;5081472;28;20218;-61
2023/12/31 10:47:56;;;;;;;2.40;1.50;;;8.60;99.90;;;;;;5079151;28;20708;-62
2023/12/31 10:50:25;;;;;;;1.40;1.30;;;8.60;99.90;;;;;;5081863;28;20328;-61
2023/12/31 10:52:57;;;;;;;1.60;1.50;;;8.60;99.90;;;;;;5083341;28;20234;-61
2023/12/31 10:55:27;;;;;;;5.17;1.87;;;8.60;99.90;;;;;;5083673;28;20230;-61
2023/12/31 10:57:58;;;;;;;4.83;1.80;;;8.60;99.90;;;;;;5080005;28;20681;-61
2023/12/31 11:00:27;;;;;;;5.97;2.07;;;8.70;99.90;;;;;;5084497;28;20234;-62
2023/12/31 11:02:58;;;;;;;2.13;1.70;;;8.70;99.90;;;;;;5080018;28;20238;-61
2023/12/31 11:05:30;;;;;;;4.80;1.73;;;8.70;99.90;;;;;;5083820;28;20227;-61
2023/12/31 11:08:01;;;;;;;2.33;1.40;;;8.80;99.90;;;;;;5085280;28;20645;-61
2023/12/31 11:10:30;;;;;;;1.70;1.50;;;8.90;99.90;;;;;;5084951;28;20673;-61
2023/12/31 11:13:02;;;;;;;4.90;1.60;;;9.10;99.90;;;;;;5083292;27;20677;-61
2023/12/31 11:15:32;;;;;;;2.10;1.47;;;9.20;99.90;;;;;;5086121;28;20215;-61
2023/12/31 11:18:38;;;;;;;2.67;1.50;;;9.40;99.90;;;;;;5086635;28;20211;-61
2023/12/31 11:21:21;;;;;;;5.33;1.83;;;9.40;99.90;;;;;;5084463;28;20639;-59
2023/12/31 11:24:01;;;;;;;3.93;1.60;;;9.40;99.90;;;;;;5084150;28;20223;-60
2023/12/31 11:26:29;;;;;;;1.60;1.50;;;9.30;99.90;;;;;;5086604;28;20227;-60
2023/12/31 11:29:02;;;;;;;5.17;1.50;;;9.40;99.90;;;;;;5085813;28;20191;-60
2023/12/31 11:31:31;;;;;;;5.10;1.47;;;9.40;99.90;;;;;;5087048;28;20242;-59
2023/12/31 11:34:01;;;;;;;2.37;1.70;;;9.30;99.90;;;;;;5088730;28;20302;-60
2023/12/31 11:36:31;;;;;;;4.27;1.67;;;9.20;99.90;;;;;;5085164;28;20219;-60
2023/12/31 11:39:00;;;;;;;3.17;1.67;;;9.20;99.90;;;;;;5086573;28;20215;-61
2023/12/31 11:41:33;;;;;;;2.67;1.60;;;9.20;99.90;;;;;;5086885;28;20235;-60
2023/12/31 11:44:03;;;;;;;8.40;1.67;;;9.20;99.90;;;;;;5084200;28;20277;-60
2023/12/31 11:46:37;;;;;;;6.00;1.73;;;9.30;99.90;;;;;;5087937;28;20569;-60
2023/12/31 11:49:06;;;;;;;2.87;1.63;;;9.30;99.90;;;;;;5086785;28;20219;-60
2023/12/31 11:51:55;;;;;;;5.10;1.83;;;9.40;99.90;;;;;;5087181;28;20306;-59
2023/12/31 11:54:24;;;;;;;3.27;1.60;;;9.40;99.90;;;;;;5085709;28;20223;-60
2023/12/31 11:56:53;;;;;;;5.03;1.73;;;9.40;99.90;;;;;;5087901;28;20223;-60
2023/12/31 11:59:23;;;;;;;11.10;1.93;;;9.30;99.90;;;;;;5086609;28;20229;-60
2023/12/31 12:01:54;;;;;;;5.23;1.90;;;9.30;99.90;;;;;;5088513;28;20195;-59
2023/12/31 12:04:23;;;;;;;6.40;2.20;;;9.30;99.90;;;;;;5087097;28;20223;-59
2023/12/31 12:06:51;;;;;;;5.10;2.03;;;9.30;99.90;;;;;;5087306;28;20222;-60
2023/12/31 12:09:22;;;;;;;5.10;1.77;;;9.30;99.90;;;;;;5086231;28;20215;-59
2023/12/31 12:11:51;;;;;;;9.23;2.27;;;9.20;99.90;;;;;;5087648;28;20222;-59
2023/12/31 12:14:19;;;;;;;8.90;2.00;;;9.20;99.90;;;;;;5088290;28;20233;-60
2023/12/31 12:16:49;;;;;;;11.53;2.33;;;9.20;99.90;;;;;;5086595;28;20199;-59
2023/12/31 12:19:17;;;;;;;11.00;1.90;;;9.20;99.90;;;;;;5086877;28;20224;-59
2023/12/31 12:21:46;;;;;;;7.90;1.97;;;9.30;99.90;;;;;;5083266;28;20885;-60
2023/12/31 12:24:15;;;;;;;9.17;2.80;;;9.50;99.90;;;;;;5086508;28;20223;-59
2023/12/31 12:26:43;;;;;;;9.60;2.00;;;9.50;99.90;;;;;;5087898;28;20249;-60
2023/12/31 12:29:13;;;;;;;7.87;2.00;;;9.60;99.90;;;;;;5084447;28;20737;-59
2023/12/31 12:31:46;;;;;;;5.00;2.10;;;9.70;99.30;;;;;;5086992;28;20188;-59
2023/12/31 12:34:16;;;;;;;7.40;2.10;;;9.80;99.90;;;;;;5086136;28;20317;-59
2023/12/31 12:36:45;;;;;;;11.10;2.10;;;9.70;96.60;;;;;;5086588;28;20239;-59
2023/12/31 12:39:17;;;;;;;6.37;2.60;;;9.70;99.90;;;;;;5086497;28;20234;-59
2023/12/31 12:41:48;;;;;;;4.63;2.03;;;9.70;99.90;;;;;;5086910;28;20223;-59
2023/12/31 12:44:17;;;;;;;11.83;2.77;;;9.60;99.90;;;;;;5085445;28;20231;-60
2023/12/31 12:46:46;;;;;;;10.10;2.60;;;9.70;97.80;;;;;;5082842;28;20192;-59
2023/12/31 12:49:17;;;;;;;4.70;1.83;;;9.70;96.30;;;;;;5085337;28;20268;-59
2023/12/31 12:51:46;;;;;;;9.00;2.17;;;9.70;97.20;;;;;;5087060;28;20293;-60
2023/12/31 12:54:14;;;;;;;12.80;2.87;;;9.70;92.20;;;;;;5086363;27;20214;-59
2023/12/31 12:56:44;;;;;;;9.00;2.43;;;9.80;94.80;;;;;;5083398;28;20223;-59
2023/12/31 12:59:13;;;;;;;7.27;2.23;;;9.80;92.70;;;;;;5088313;28;20191;-59
2023/12/31 13:01:41;;;;;;;9.00;2.63;;;9.80;90.00;;;;;;5084977;28;20199;-60
2023/12/31 13:04:12;;;;;;;11.77;2.20;;;9.80;92.20;;;;;;5081214;28;20301;-59
2023/12/31 13:06:42;;;;;;;9.00;2.50;;;9.80;90.90;;;;;;5083366;27;20247;-60